sensor_id;sensor_type;location;lat;lon;timestamp;pressure;altitude;pressure_sealevel;temperature;humidity
71424;BME280;59240;51.370;-0.486;2022-08-21T00:02:01;101524.28;;;16.04;69.63
71424;BME280;59240;51.370;-0.486;2022-08-21T00:04:28;101484.84;;;15.79;69.92
71424;BME280;59240;51.370;-0.486;2022-08-21T00:06:56;101521.84;;;15.98;70.16
71424;BME280;59240;51.370;-0.486;2022-08-21T00:09:23;101466.06;;;15.63;69.83
71424;BME280;59240;51.370;-0.486;2022-08-21T00:11:50;101500.63;;;15.77;69.78
71424;BME280;59240;51.370;-0.486;2022-08-21T00:14:17;101514.53;;;15.81;70.47
71424;BME280;59240;51.370;-0.486;2022-08-21T00:16:44;101513.88;;;15.74;70.82
71424;BME280;59240;51.370;-0.486;2022-08-21T00:19:11;101531.16;;;15.81;70.91
71424;BME280;59240;51.370;-0.486;2022-08-21T00:21:38;101504.53;;;15.64;70.37
71424;BME280;59240;51.370;-0.486;2022-08-21T00:24:09;101510.78;;;15.60;71.12
71424;BME280;59240;51.370;-0.486;2022-08-21T00:26:36;101515.13;;;15.61;71.08
71424;BME280;59240;51.370;-0.486;2022-08-21T00:29:03;101530.63;;;15.70;71.14
71424;BME280;59240;51.370;-0.486;2022-08-21T00:31:30;101516.13;;;15.57;70.82
71424;BME280;59240;51.370;-0.486;2022-08-21T00:33:57;101514.59;;;15.50;70.15
71424;BME280;59240;51.370;-0.486;2022-08-21T00:36:26;101505.97;;;15.46;70.76
71424;BME280;59240;51.370;-0.486;2022-08-21T00:38:53;101517.88;;;15.56;70.94
71424;BME280;59240;51.370;-0.486;2022-08-21T00:41:20;101512.78;;;15.52;71.28
71424;BME280;59240;51.370;-0.486;2022-08-21T00:44:05;101490.63;;;15.32;70.95
71424;BME280;59240;51.370;-0.486;2022-08-21T00:46:32;101511.34;;;15.42;71.67
71424;BME280;59240;51.370;-0.486;2022-08-21T00:48:59;101475.06;;;15.26;71.56
71424;BME280;59240;51.370;-0.486;2022-08-21T00:51:53;101460.28;;;15.22;71.64
71424;BME280;59240;51.370;-0.486;2022-08-21T00:54:21;101498.34;;;15.37;71.29
71424;BME280;59240;51.370;-0.486;2022-08-21T00:56:53;101471.69;;;15.21;72.30
71424;BME280;59240;51.370;-0.486;2022-08-21T00:59:21;101492.34;;;15.33;72.22
71424;BME280;59240;51.370;-0.486;2022-08-21T01:01:48;101494.16;;;15.31;72.69
71424;BME280;59240;51.370;-0.486;2022-08-21T01:04:16;101495.94;;;15.29;72.30
71424;BME280;59240;51.370;-0.486;2022-08-21T01:06:43;101487.28;;;15.27;71.85
71424;BME280;59240;51.370;-0.486;2022-08-21T01:09:10;101477.13;;;15.15;72.97
71424;BME280;59240;51.370;-0.486;2022-08-21T01:11:37;101439.44;;;14.90;72.75
71424;BME280;59240;51.370;-0.486;2022-08-21T01:14:04;101465.28;;;15.02;72.33
71424;BME280;59240;51.370;-0.486;2022-08-21T01:16:32;101509.41;;;15.19;72.75
71424;BME280;59240;51.370;-0.486;2022-08-21T01:18:59;101476.63;;;15.02;72.64
71424;BME280;59240;51.370;-0.486;2022-08-21T01:21:27;101486.25;;;15.02;72.81
71424;BME280;59240;51.370;-0.486;2022-08-21T01:23:55;101500.06;;;15.10;72.74
71424;BME280;59240;51.370;-0.486;2022-08-21T01:26:29;101507.00;;;15.11;73.08
71424;BME280;59240;51.370;-0.486;2022-08-21T01:31:32;101490.63;;;15.03;73.41
71424;BME280;59240;51.370;-0.486;2022-08-21T01:33:59;101512.16;;;15.14;73.34
71424;BME280;59240;51.370;-0.486;2022-08-21T01:36:27;101510.56;;;15.10;73.76
71424;BME280;59240;51.370;-0.486;2022-08-21T01:38:53;101490.75;;;14.98;73.25
71424;BME280;59240;51.370;-0.486;2022-08-21T01:41:20;101513.13;;;15.12;73.18
71424;BME280;59240;51.370;-0.486;2022-08-21T01:43:48;101508.00;;;15.07;73.93
71424;BME280;59240;51.370;-0.486;2022-08-21T01:46:15;101515.88;;;15.07;73.34
71424;BME280;59240;51.370;-0.486;2022-08-21T01:48:43;101513.19;;;15.09;73.57
71424;BME280;59240;51.370;-0.486;2022-08-21T01:51:09;101471.88;;;14.86;74.04
71424;BME280;59240;51.370;-0.486;2022-08-21T01:53:37;101511.63;;;15.03;73.22
71424;BME280;59240;51.370;-0.486;2022-08-21T01:56:07;101505.47;;;15.04;73.18
71424;BME280;59240;51.370;-0.486;2022-08-21T01:58:40;101511.47;;;15.08;74.44
71424;BME280;59240;51.370;-0.486;2022-08-21T02:01:07;101484.81;;;14.92;73.56
71424;BME280;59240;51.370;-0.486;2022-08-21T02:03:36;101511.56;;;15.04;74.53
71424;BME280;59240;51.370;-0.486;2022-08-21T02:06:04;101485.78;;;14.89;73.73
71424;BME280;59240;51.370;-0.486;2022-08-21T02:08:34;101503.75;;;15.03;73.98
71424;BME280;59240;51.370;-0.486;2022-08-21T02:11:00;101500.41;;;14.98;73.93
71424;BME280;59240;51.370;-0.486;2022-08-21T02:13:29;101517.84;;;14.99;74.53
71424;BME280;59240;51.370;-0.486;2022-08-21T02:15:56;101517.06;;;14.97;74.71
71424;BME280;59240;51.370;-0.486;2022-08-21T02:18:23;101524.91;;;14.97;73.66
71424;BME280;59240;51.370;-0.486;2022-08-21T02:20:50;101501.53;;;14.89;74.63
71424;BME280;59240;51.370;-0.486;2022-08-21T02:23:22;101495.50;;;14.86;74.61
71424;BME280;59240;51.370;-0.486;2022-08-21T02:26:04;101511.81;;;14.95;74.41
71424;BME280;59240;51.370;-0.486;2022-08-21T02:28:31;101501.25;;;14.98;74.84
71424;BME280;59240;51.370;-0.486;2022-08-21T02:30:58;101503.81;;;15.00;74.66
71424;BME280;59240;51.370;-0.486;2022-08-21T02:33:25;101491.63;;;14.99;74.64
71424;BME280;59240;51.370;-0.486;2022-08-21T02:35:53;101497.78;;;14.98;74.73
71424;BME280;59240;51.370;-0.486;2022-08-21T02:38:23;101483.19;;;14.88;74.60
71424;BME280;59240;51.370;-0.486;2022-08-21T02:40:51;101498.75;;;14.94;74.91
71424;BME280;59240;51.370;-0.486;2022-08-21T02:43:20;101474.50;;;14.86;74.70
71424;BME280;59240;51.370;-0.486;2022-08-21T02:45:48;101502.91;;;15.01;75.22
71424;BME280;59240;51.370;-0.486;2022-08-21T02:48:18;101490.06;;;14.92;75.01
71424;BME280;59240;51.370;-0.486;2022-08-21T02:50:48;101496.88;;;14.99;75.61
71424;BME280;59240;51.370;-0.486;2022-08-21T02:53:17;101468.41;;;14.85;75.17
71424;BME280;59240;51.370;-0.486;2022-08-21T02:55:46;101496.88;;;14.99;75.39
71424;BME280;59240;51.370;-0.486;2022-08-21T02:58:15;101499.53;;;14.97;74.37
71424;BME280;59240;51.370;-0.486;2022-08-21T03:00:43;101489.97;;;14.95;74.86
71424;BME280;59240;51.370;-0.486;2022-08-21T03:03:10;101479.69;;;14.87;75.41
71424;BME280;59240;51.370;-0.486;2022-08-21T03:05:37;101494.41;;;14.93;74.54
71424;BME280;59240;51.370;-0.486;2022-08-21T03:08:06;101464.34;;;14.73;75.18
71424;BME280;59240;51.370;-0.486;2022-08-21T03:10:37;101471.16;;;14.81;74.85
71424;BME280;59240;51.370;-0.486;2022-08-21T03:13:06;101460.13;;;14.69;75.38
71424;BME280;59240;51.370;-0.486;2022-08-21T03:15:34;101493.78;;;14.85;74.49
71424;BME280;59240;51.370;-0.486;2022-08-21T03:18:02;101456.59;;;14.70;75.46
71424;BME280;59240;51.370;-0.486;2022-08-21T03:20:30;101455.03;;;14.63;75.46
71424;BME280;59240;51.370;-0.486;2022-08-21T03:22:59;101483.34;;;14.82;75.48
71424;BME280;59240;51.370;-0.486;2022-08-21T03:25:27;101487.75;;;14.81;75.87
71424;BME280;59240;51.370;-0.486;2022-08-21T03:28:09;101478.31;;;14.75;75.73
71424;BME280;59240;51.370;-0.486;2022-08-21T03:30:42;101475.69;;;14.74;75.44
71424;BME280;59240;51.370;-0.486;2022-08-21T03:33:09;101470.47;;;14.74;75.20
71424;BME280;59240;51.370;-0.486;2022-08-21T03:35:42;101478.31;;;14.74;75.51
71424;BME280;59240;51.370;-0.486;2022-08-21T03:38:10;101477.47;;;14.73;76.13
71424;BME280;59240;51.370;-0.486;2022-08-21T03:40:40;101481.91;;;14.71;76.05
71424;BME280;59240;51.370;-0.486;2022-08-21T03:43:06;101481.09;;;14.69;75.54
71424;BME280;59240;51.370;-0.486;2022-08-21T03:45:36;101479.41;;;14.67;75.31
71424;BME280;59240;51.370;-0.486;2022-08-21T03:48:04;101484.69;;;14.65;75.44
71424;BME280;59240;51.370;-0.486;2022-08-21T03:50:34;101485.78;;;14.58;76.36
71424;BME280;59240;51.370;-0.486;2022-08-21T03:53:10;101482.41;;;14.53;76.08
71424;BME280;59240;51.370;-0.486;2022-08-21T03:55:47;101497.13;;;14.59;75.54
71424;BME280;59240;51.370;-0.486;2022-08-21T03:58:16;101480.69;;;14.52;75.65
71424;BME280;59240;51.370;-0.486;2022-08-21T04:00:49;101465.34;;;14.37;76.05
71424;BME280;59240;51.370;-0.486;2022-08-21T04:03:18;101474.88;;;14.39;75.47
71424;BME280;59240;51.370;-0.486;2022-08-21T04:05:46;101462.78;;;14.35;76.33
71424;BME280;59240;51.370;-0.486;2022-08-21T04:08:14;101483.47;;;14.44;76.14
71424;BME280;59240;51.370;-0.486;2022-08-21T04:10:44;101499.09;;;14.50;75.48
71424;BME280;59240;51.370;-0.486;2022-08-21T04:13:11;101486.16;;;14.43;76.75
71424;BME280;59240;51.370;-0.486;2022-08-21T04:15:38;101479.25;;;14.39;76.40
71424;BME280;59240;51.370;-0.486;2022-08-21T04:18:05;101483.59;;;14.40;76.38
71424;BME280;59240;51.370;-0.486;2022-08-21T04:20:32;101455.13;;;14.28;77.27
71424;BME280;59240;51.370;-0.486;2022-08-21T04:23:00;101496.34;;;14.55;77.16
71424;BME280;59240;51.370;-0.486;2022-08-21T04:25:27;101497.22;;;14.54;76.73
71424;BME280;59240;51.370;-0.486;2022-08-21T04:27:53;101492.81;;;14.56;76.94
71424;BME280;59240;51.370;-0.486;2022-08-21T04:30:20;101503.16;;;14.62;77.50
71424;BME280;59240;51.370;-0.486;2022-08-21T04:32:55;101486.69;;;14.57;77.25
71424;BME280;59240;51.370;-0.486;2022-08-21T04:35:24;101506.59;;;14.64;77.24
71424;BME280;59240;51.370;-0.486;2022-08-21T04:37:51;101479.94;;;14.48;76.36
71424;BME280;59240;51.370;-0.486;2022-08-21T04:40:19;101478.19;;;14.47;76.14
71424;BME280;59240;51.370;-0.486;2022-08-21T04:42:52;101497.97;;;14.59;76.22
71424;BME280;59240;51.370;-0.486;2022-08-21T04:45:22;101506.41;;;14.70;76.05
71424;BME280;59240;51.370;-0.486;2022-08-21T04:47:53;101485.88;;;14.55;76.77
71424;BME280;59240;51.370;-0.486;2022-08-21T04:50:26;101511.66;;;14.70;76.28
71424;BME280;59240;51.370;-0.486;2022-08-21T04:52:54;101497.81;;;14.65;76.74
71424;BME280;59240;51.370;-0.486;2022-08-21T04:55:22;101506.47;;;14.67;76.11
71424;BME280;59240;51.370;-0.486;2022-08-21T04:57:50;101503.22;;;14.59;76.21
71424;BME280;59240;51.370;-0.486;2022-08-21T05:00:20;101488.59;;;14.50;76.16
71424;BME280;59240;51.370;-0.486;2022-08-21T05:02:48;101488.59;;;14.50;75.93
71424;BME280;59240;51.370;-0.486;2022-08-21T05:05:16;101498.03;;;14.58;76.09
71424;BME280;59240;51.370;-0.486;2022-08-21T05:07:44;101493.06;;;14.47;76.09
71424;BME280;59240;51.370;-0.486;2022-08-21T05:10:12;101498.06;;;14.56;76.02
71424;BME280;59240;51.370;-0.486;2022-08-21T05:12:41;101505.09;;;14.54;76.91
71424;BME280;59240;51.370;-0.486;2022-08-21T05:15:11;101509.38;;;14.58;77.23
71424;BME280;59240;51.370;-0.486;2022-08-21T05:17:40;101508.63;;;14.53;76.65
71424;BME280;59240;51.370;-0.486;2022-08-21T05:20:09;101510.19;;;14.60;77.39
71424;BME280;59240;51.370;-0.486;2022-08-21T05:22:36;101483.47;;;14.44;77.02
71424;BME280;59240;51.370;-0.486;2022-08-21T05:25:05;101471.50;;;14.36;76.35
71424;BME280;59240;51.370;-0.486;2022-08-21T05:27:37;101511.03;;;14.61;76.99
71424;BME280;59240;51.370;-0.486;2022-08-21T05:30:09;101528.38;;;14.66;76.66
71424;BME280;59240;51.370;-0.486;2022-08-21T05:32:36;101526.56;;;14.68;77.09
71424;BME280;59240;51.370;-0.486;2022-08-21T05:35:07;101530.94;;;14.69;77.31
71424;BME280;59240;51.370;-0.486;2022-08-21T05:37:34;101482.56;;;14.47;76.94
71424;BME280;59240;51.370;-0.486;2022-08-21T05:40:02;101523.88;;;14.71;77.32
71424;BME280;59240;51.370;-0.486;2022-08-21T05:42:49;101535.06;;;14.78;76.15
71424;BME280;59240;51.370;-0.486;2022-08-21T05:45:26;101546.34;;;14.80;76.35
71424;BME280;59240;51.370;-0.486;2022-08-21T05:48:35;101545.38;;;14.84;76.36
71424;BME280;59240;51.370;-0.486;2022-08-21T05:51:09;101529.88;;;14.75;77.01
71424;BME280;59240;51.370;-0.486;2022-08-21T05:53:37;101550.47;;;14.90;76.47
71424;BME280;59240;51.370;-0.486;2022-08-21T05:56:04;101544.44;;;14.87;76.68
71424;BME280;59240;51.370;-0.486;2022-08-21T05:58:32;101556.41;;;14.97;76.64
71424;BME280;59240;51.370;-0.486;2022-08-21T06:01:01;101561.56;;;15.00;76.19
71424;BME280;59240;51.370;-0.486;2022-08-21T06:03:31;101551.06;;;15.00;75.87
71424;BME280;59240;51.370;-0.486;2022-08-21T06:05:58;101533.66;;;14.96;76.81
71424;BME280;59240;51.370;-0.486;2022-08-21T06:08:25;101512.88;;;14.90;76.29
71424;BME280;59240;51.370;-0.486;2022-08-21T06:10:53;101544.59;;;15.12;76.47
71424;BME280;59240;51.370;-0.486;2022-08-21T06:13:21;101549.75;;;15.15;75.65
71424;BME280;59240;51.370;-0.486;2022-08-21T06:15:49;101531.44;;;15.13;75.34
71424;BME280;59240;51.370;-0.486;2022-08-21T06:18:16;101510.72;;;15.04;75.76
71424;BME280;59240;51.370;-0.486;2022-08-21T06:20:43;101525.91;;;15.22;76.13
71424;BME280;59240;51.370;-0.486;2022-08-21T06:23:10;101523.72;;;15.37;75.95
71424;BME280;59240;51.370;-0.486;2022-08-21T06:25:37;101521.97;;;15.37;75.70
71424;BME280;59240;51.370;-0.486;2022-08-21T06:28:06;101514.75;;;15.45;75.67
71424;BME280;59240;51.370;-0.486;2022-08-21T06:30:35;101504.19;;;15.47;75.11
71424;BME280;59240;51.370;-0.486;2022-08-21T06:33:03;101524.56;;;15.68;75.45
71424;BME280;59240;51.370;-0.486;2022-08-21T06:35:30;101522.66;;;15.73;75.13
71424;BME280;59240;51.370;-0.486;2022-08-21T06:37:57;101519.78;;;15.81;74.28
71424;BME280;59240;51.370;-0.486;2022-08-21T06:40:25;101530.97;;;15.88;74.42
71424;BME280;59240;51.370;-0.486;2022-08-21T06:42:55;101529.78;;;15.96;74.27
71424;BME280;59240;51.370;-0.486;2022-08-21T06:45:24;101502.78;;;15.93;74.12
71424;BME280;59240;51.370;-0.486;2022-08-21T06:47:53;101493.88;;;15.97;73.60
71424;BME280;59240;51.370;-0.486;2022-08-21T06:50:20;101522.88;;;16.20;73.55
71424;BME280;59240;51.370;-0.486;2022-08-21T06:52:46;101514.75;;;16.28;72.98
71424;BME280;59240;51.370;-0.486;2022-08-21T06:55:13;101482.81;;;16.13;72.96
71424;BME280;59240;51.370;-0.486;2022-08-21T06:57:47;101494.66;;;16.25;72.72
71424;BME280;59240;51.370;-0.486;2022-08-21T07:00:18;101500.47;;;16.35;72.49
71424;BME280;59240;51.370;-0.486;2022-08-21T07:02:45;101510.44;;;16.50;72.97
71424;BME280;59240;51.370;-0.486;2022-08-21T07:05:12;101517.97;;;16.61;72.34
71424;BME280;59240;51.370;-0.486;2022-08-21T07:07:44;101493.66;;;16.54;71.97
71424;BME280;59240;51.370;-0.486;2022-08-21T07:10:13;101497.41;;;16.72;71.65
71424;BME280;59240;51.370;-0.486;2022-08-21T07:12:48;101499.72;;;16.81;71.56
71424;BME280;59240;51.370;-0.486;2022-08-21T07:15:29;101487.16;;;16.89;70.72
71424;BME280;59240;51.370;-0.486;2022-08-21T07:17:58;101509.34;;;17.06;70.62
71424;BME280;59240;51.370;-0.486;2022-08-21T07:20:27;101511.88;;;17.09;70.06
71424;BME280;59240;51.370;-0.486;2022-08-21T07:22:56;101499.81;;;17.03;69.81
71424;BME280;59240;51.370;-0.486;2022-08-21T07:25:24;101512.44;;;17.17;69.66
71424;BME280;59240;51.370;-0.486;2022-08-21T07:27:51;101512.22;;;17.23;69.99
71424;BME280;59240;51.370;-0.486;2022-08-21T07:30:19;101492.25;;;17.17;70.07
71424;BME280;59240;51.370;-0.486;2022-08-21T07:32:45;101471.34;;;17.13;69.32
71424;BME280;59240;51.370;-0.486;2022-08-21T07:35:16;101469.34;;;17.19;69.32
71424;BME280;59240;51.370;-0.486;2022-08-21T07:37:43;101481.88;;;17.36;69.05
71424;BME280;59240;51.370;-0.486;2022-08-21T07:40:10;101483.50;;;17.39;68.27
71424;BME280;59240;51.370;-0.486;2022-08-21T07:42:41;101479.22;;;17.36;68.63
71424;BME280;59240;51.370;-0.486;2022-08-21T07:45:10;101503.13;;;17.54;68.54
71424;BME280;59240;51.370;-0.486;2022-08-21T07:47:37;101492.75;;;17.49;68.33
71424;BME280;59240;51.370;-0.486;2022-08-21T07:50:10;101473.66;;;17.44;68.42
71424;BME280;59240;51.370;-0.486;2022-08-21T07:52:38;101494.19;;;17.58;67.96
71424;BME280;59240;51.370;-0.486;2022-08-21T07:55:06;101503.56;;;17.65;67.99
71424;BME280;59240;51.370;-0.486;2022-08-21T07:57:33;101503.56;;;17.65;67.87
71424;BME280;59240;51.370;-0.486;2022-08-21T08:00:00;101504.16;;;17.73;68.05
71424;BME280;59240;51.370;-0.486;2022-08-21T08:02:29;101479.03;;;17.63;66.97
71424;BME280;59240;51.370;-0.486;2022-08-21T08:05:01;101482.34;;;17.68;67.41
71424;BME280;59240;51.370;-0.486;2022-08-21T08:07:28;101483.75;;;17.78;66.71
71424;BME280;59240;51.370;-0.486;2022-08-21T08:09:54;101469.03;;;17.72;66.49
71424;BME280;59240;51.370;-0.486;2022-08-21T08:12:21;101489.31;;;17.92;66.93
71424;BME280;59240;51.370;-0.486;2022-08-21T08:14:48;101485.75;;;17.93;66.27
71424;BME280;59240;51.370;-0.486;2022-08-21T08:17:15;101488.13;;;17.99;65.85
71424;BME280;59240;51.370;-0.486;2022-08-21T08:19:41;101484.16;;;18.10;66.37
71424;BME280;59240;51.370;-0.486;2022-08-21T08:22:17;101462.81;;;18.16;66.20
71424;BME280;59240;51.370;-0.486;2022-08-21T08:24:46;101489.59;;;18.47;65.36
71424;BME280;59240;51.370;-0.486;2022-08-21T08:27:14;101457.78;;;18.50;65.53
71424;BME280;59240;51.370;-0.486;2022-08-21T08:29:42;101446.81;;;18.59;65.54
71424;BME280;59240;51.370;-0.486;2022-08-21T08:32:08;101475.28;;;18.92;64.54
71424;BME280;59240;51.370;-0.486;2022-08-21T08:34:36;101457.47;;;18.97;63.80
71424;BME280;59240;51.370;-0.486;2022-08-21T08:37:06;101496.28;;;19.33;63.06
71424;BME280;59240;51.370;-0.486;2022-08-21T08:39:33;101498.19;;;19.48;63.04
71424;BME280;59240;51.370;-0.486;2022-08-21T08:42:15;101504.59;;;19.63;62.29
71424;BME280;59240;51.370;-0.486;2022-08-21T08:45:09;101468.84;;;19.54;62.14
71424;BME280;59240;51.370;-0.486;2022-08-21T08:47:40;101483.13;;;19.69;62.55
71424;BME280;59240;51.370;-0.486;2022-08-21T08:50:19;101482.59;;;19.80;61.15
71424;BME280;59240;51.370;-0.486;2022-08-21T08:52:57;101504.28;;;20.05;61.54
71424;BME280;59240;51.370;-0.486;2022-08-21T08:55:33;101509.56;;;20.22;60.99
71424;BME280;59240;51.370;-0.486;2022-08-21T08:58:01;101487.69;;;20.19;60.39
71424;BME280;59240;51.370;-0.486;2022-08-21T09:00:30;101510.94;;;20.30;59.45
71424;BME280;59240;51.370;-0.486;2022-08-21T09:03:00;101520.16;;;20.40;59.43
71424;BME280;59240;51.370;-0.486;2022-08-21T09:05:41;101519.63;;;20.51;59.38
71424;BME280;59240;51.370;-0.486;2022-08-21T09:10:55;101533.97;;;21.13;57.84
71424;BME280;59240;51.370;-0.486;2022-08-21T09:13:40;101513.59;;;21.30;56.88
71424;BME280;59240;51.370;-0.486;2022-08-21T09:25:03;101543.06;;;22.19;52.60
71424;BME280;59240;51.370;-0.486;2022-08-21T09:27:34;101531.03;;;22.28;53.14
71424;BME280;59240;51.370;-0.486;2022-08-21T09:30:04;101536.78;;;22.50;53.12
71424;BME280;59240;51.370;-0.486;2022-08-21T09:32:34;101537.97;;;22.75;52.76
71424;BME280;59240;51.370;-0.486;2022-08-21T09:37:45;101544.53;;;23.12;50.99
71424;BME280;59240;51.370;-0.486;2022-08-21T09:43:11;101529.91;;;23.19;51.04
71424;BME280;59240;51.370;-0.486;2022-08-21T09:45:44;101512.84;;;23.09;49.79
71424;BME280;59240;51.370;-0.486;2022-08-21T09:48:17;101534.28;;;23.06;49.55
71424;BME280;59240;51.370;-0.486;2022-08-21T09:50:45;101528.06;;;22.92;50.55
71424;BME280;59240;51.370;-0.486;2022-08-21T09:53:21;101518.44;;;22.90;48.68
71424;BME280;59240;51.370;-0.486;2022-08-21T09:56:27;101541.88;;;22.98;49.10
71424;BME280;59240;51.370;-0.486;2022-08-21T09:59:27;101533.44;;;23.05;49.48
71424;BME280;59240;51.370;-0.486;2022-08-21T10:02:21;101522.13;;;23.30;49.63
71424;BME280;59240;51.370;-0.486;2022-08-21T10:05:19;101529.69;;;23.51;48.28
71424;BME280;59240;51.370;-0.486;2022-08-21T10:07:46;101511.94;;;23.37;48.26
71424;BME280;59240;51.370;-0.486;2022-08-21T10:13:21;101522.34;;;23.27;47.53
71424;BME280;59240;51.370;-0.486;2022-08-21T10:15:42;101528.41;;;23.29;47.86
71424;BME280;59240;51.370;-0.486;2022-08-21T10:18:42;101536.94;;;23.34;47.40
71424;BME280;59240;51.370;-0.486;2022-08-21T10:21:23;101520.19;;;23.46;47.11
71424;BME280;59240;51.370;-0.486;2022-08-21T10:29:09;101524.53;;;23.76;45.55
71424;BME280;59240;51.370;-0.486;2022-08-21T10:34:51;101513.13;;;23.60;46.07
71424;BME280;59240;51.370;-0.486;2022-08-21T10:45:42;101511.78;;;23.26;45.72
71424;BME280;59240;51.370;-0.486;2022-08-21T10:48:25;101515.69;;;23.20;45.29
71424;BME280;59240;51.370;-0.486;2022-08-21T10:55:59;101477.34;;;23.10;44.58
71424;BME280;59240;51.370;-0.486;2022-08-21T10:58:37;101505.72;;;23.24;44.49
71424;BME280;59240;51.370;-0.486;2022-08-21T11:01:24;101505.91;;;23.20;45.46
71424;BME280;59240;51.370;-0.486;2022-08-21T11:04:11;101502.41;;;23.20;44.99
71424;BME280;59240;51.370;-0.486;2022-08-21T11:06:44;101496.53;;;23.15;44.47
71424;BME280;59240;51.370;-0.486;2022-08-21T11:09:15;101511.50;;;23.30;44.50
71424;BME280;59240;51.370;-0.486;2022-08-21T11:11:52;101522.84;;;23.46;44.87
71424;BME280;59240;51.370;-0.486;2022-08-21T11:14:48;101489.22;;;23.45;44.08
71424;BME280;59240;51.370;-0.486;2022-08-21T11:17:40;101515.38;;;23.80;43.81
71424;BME280;59240;51.370;-0.486;2022-08-21T11:20:26;101525.69;;;24.12;42.00
71424;BME280;59240;51.370;-0.486;2022-08-21T11:23:01;101524.47;;;24.43;42.73
71424;BME280;59240;51.370;-0.486;2022-08-21T11:25:34;101524.06;;;24.62;42.55
71424;BME280;59240;51.370;-0.486;2022-08-21T11:28:08;101508.53;;;24.68;41.85
71424;BME280;59240;51.370;-0.486;2022-08-21T11:30:52;101520.75;;;24.96;41.45
71424;BME280;59240;51.370;-0.486;2022-08-21T11:36:00;101511.63;;;25.37;40.69
71424;BME280;59240;51.370;-0.486;2022-08-21T11:38:40;101517.34;;;25.56;40.02
71424;BME280;59240;51.370;-0.486;2022-08-21T11:41:20;101513.72;;;25.57;39.52
71424;BME280;59240;51.370;-0.486;2022-08-21T11:52:38;101494.84;;;25.72;38.40
71424;BME280;59240;51.370;-0.486;2022-08-21T12:00:23;101490.66;;;25.56;38.67
71424;BME280;59240;51.370;-0.486;2022-08-21T12:02:54;101505.97;;;25.65;38.57
71424;BME280;59240;51.370;-0.486;2022-08-21T12:05:26;101485.31;;;25.56;38.42
71424;BME280;59240;51.370;-0.486;2022-08-21T12:08:26;101514.38;;;25.85;38.21
71424;BME280;59240;51.370;-0.486;2022-08-21T12:11:22;101500.22;;;25.96;37.68
71424;BME280;59240;51.370;-0.486;2022-08-21T12:14:00;101507.38;;;25.95;37.79
71424;BME280;59240;51.370;-0.486;2022-08-21T12:16:39;101497.66;;;25.94;37.47
71424;BME280;59240;51.370;-0.486;2022-08-21T12:19:12;101505.44;;;25.97;37.74
71424;BME280;59240;51.370;-0.486;2022-08-21T12:22:31;101507.13;;;25.98;36.83
71424;BME280;59240;51.370;-0.486;2022-08-21T12:24:44;101492.09;;;25.97;37.98
71424;BME280;59240;51.370;-0.486;2022-08-21T12:27:30;101494.50;;;26.00;37.05
71424;BME280;59240;51.370;-0.486;2022-08-21T12:30:21;101500.81;;;25.99;37.12
71424;BME280;59240;51.370;-0.486;2022-08-21T12:33:00;101498.63;;;25.93;36.92
71424;BME280;59240;51.370;-0.486;2022-08-21T12:35:33;101489.88;;;25.91;37.46
71424;BME280;59240;51.370;-0.486;2022-08-21T12:38:15;101482.38;;;25.96;37.36
71424;BME280;59240;51.370;-0.486;2022-08-21T12:43:18;101487.66;;;26.09;36.99
71424;BME280;59240;51.370;-0.486;2022-08-21T12:45:49;101487.53;;;26.10;36.49
71424;BME280;59240;51.370;-0.486;2022-08-21T12:48:43;101458.16;;;26.10;37.30
71424;BME280;59240;51.370;-0.486;2022-08-21T12:51:14;101481.44;;;26.43;37.04
71424;BME280;59240;51.370;-0.486;2022-08-21T12:53:56;101481.09;;;26.82;36.89
71424;BME280;59240;51.370;-0.486;2022-08-21T12:56:32;101478.56;;;27.14;35.31
71424;BME280;59240;51.370;-0.486;2022-08-21T12:59:07;101485.44;;;27.39;35.46
71424;BME280;59240;51.370;-0.486;2022-08-21T13:01:49;101485.03;;;27.54;33.97
71424;BME280;59240;51.370;-0.486;2022-08-21T13:04:21;101489.84;;;27.72;34.05
71424;BME280;59240;51.370;-0.486;2022-08-21T13:06:53;101484.41;;;27.73;34.03
71424;BME280;59240;51.370;-0.486;2022-08-21T13:09:26;101491.69;;;27.71;34.43
71424;BME280;59240;51.370;-0.486;2022-08-21T13:11:54;101477.94;;;27.65;33.94
71424;BME280;59240;51.370;-0.486;2022-08-21T13:14:26;101479.13;;;27.40;34.43
71424;BME280;59240;51.370;-0.486;2022-08-21T13:16:57;101463.59;;;27.00;34.50
71424;BME280;59240;51.370;-0.486;2022-08-21T13:19:25;101467.75;;;26.70;35.61
71424;BME280;59240;51.370;-0.486;2022-08-21T13:21:53;101466.53;;;26.63;35.10
71424;BME280;59240;51.370;-0.486;2022-08-21T13:24:26;101466.00;;;26.69;35.74
71424;BME280;59240;51.370;-0.486;2022-08-21T13:27:21;101464.56;;;26.88;34.73
71424;BME280;59240;51.370;-0.486;2022-08-21T13:30:01;101457.38;;;27.11;34.41
71424;BME280;59240;51.370;-0.486;2022-08-21T13:32:30;101454.56;;;27.23;33.78
71424;BME280;59240;51.370;-0.486;2022-08-21T13:35:07;101438.88;;;27.30;33.31
71424;BME280;59240;51.370;-0.486;2022-08-21T13:37:35;101448.91;;;27.49;33.27
71424;BME280;59240;51.370;-0.486;2022-08-21T13:40:02;101449.75;;;27.49;33.86
71424;BME280;59240;51.370;-0.486;2022-08-21T13:42:32;101450.94;;;27.57;32.63
71424;BME280;59240;51.370;-0.486;2022-08-21T13:45:00;101445.94;;;27.63;32.62
71424;BME280;59240;51.370;-0.486;2022-08-21T13:47:26;101452.28;;;27.73;33.13
71424;BME280;59240;51.370;-0.486;2022-08-21T13:49:53;101449.00;;;27.91;33.69
71424;BME280;59240;51.370;-0.486;2022-08-21T13:52:26;101448.44;;;28.08;32.89
71424;BME280;59240;51.370;-0.486;2022-08-21T13:55:07;101449.41;;;28.07;33.05
71424;BME280;59240;51.370;-0.486;2022-08-21T13:57:37;101442.63;;;28.03;32.19
71424;BME280;59240;51.370;-0.486;2022-08-21T14:00:26;101414.19;;;27.91;32.35
71424;BME280;59240;51.370;-0.486;2022-08-21T14:02:54;101432.78;;;28.13;32.67
71424;BME280;59240;51.370;-0.486;2022-08-21T14:05:28;101431.75;;;28.25;32.17
71424;BME280;59240;51.370;-0.486;2022-08-21T14:10:31;101436.72;;;28.51;31.31